PBD180 URMM-UUWW
Flight info
| Callsign | PBD180 |
|---|---|
| Flight time | 2h 36m |
| Altitude | 37000 |
| Route | URILU5M URILU R227 BEMES DCT VULFI DCT TUVGI DCT EVZUN DCT ZIZAR DCT VAZLU DCT UZZID DCT NOKLI N72 WGD G481 OBABI T619 UMRAL P163 LAMKO DCT LEKDO LEKDO3B |
| Aircraft | B738/M-SDE2E3FGHIRWXY/LB1 |
Departure
| Time | 2026-04-22 09:10 |
|---|---|
| Airport | Mineralnye Vody Airport (URMM) |
Arrival
| Time | 2026-04-22 11:46 |
|---|---|
| Airport | Vnukovo International Airport (UUWW) |
| Time | Latitude | Longitude | Altitude | Speed | Heading |
|---|---|---|---|---|---|
| 2026-04-22 08:42 | 44.21756 | 43.08986 | 1022 ft | 0 kts | 212° |
| 2026-04-22 08:59 | 44.21759 | 43.08989 | 1050 ft | 3 kts | 212° |
| 2026-04-22 09:00 | 44.21781 | 43.09009 | 1050 ft | 4 kts | 213° |
| 2026-04-22 09:00 | 44.21804 | 43.09029 | 1050 ft | 4 kts | 205° |
| 2026-04-22 09:00 | 44.21828 | 43.09036 | 1050 ft | 4 kts | 161° |
| 2026-04-22 09:00 | 44.21849 | 43.09016 | 1050 ft | 4 kts | 127° |
| 2026-04-22 09:01 | 44.21857 | 43.09001 | 1050 ft | 1 kts | 123° |
| 2026-04-22 09:01 | 44.21858 | 43.08999 | 1050 ft | 0 kts | 123° |
| 2026-04-22 09:04 | 44.21856 | 43.09003 | 1050 ft | 3 kts | 123° |
| 2026-04-22 09:04 | 44.21837 | 43.09042 | 1050 ft | 5 kts | 126° |
| 2026-04-22 09:04 | 44.21813 | 43.09083 | 1051 ft | 6 kts | 126° |
| 2026-04-22 09:04 | 44.21781 | 43.09154 | 1050 ft | 9 kts | 122° |
| 2026-04-22 09:05 | 44.21746 | 43.09230 | 1052 ft | 9 kts | 122° |
| 2026-04-22 09:05 | 44.21709 | 43.09300 | 1050 ft | 9 kts | 135° |
| 2026-04-22 09:05 | 44.21667 | 43.09363 | 1051 ft | 9 kts | 127° |
| 2026-04-22 09:05 | 44.21636 | 43.09432 | 1050 ft | 8 kts | 122° |
| 2026-04-22 09:06 | 44.21605 | 43.09500 | 1050 ft | 8 kts | 123° |
| 2026-04-22 09:06 | 44.21573 | 43.09571 | 1050 ft | 9 kts | 122° |
| 2026-04-22 09:06 | 44.21535 | 43.09654 | 1050 ft | 11 kts | 122° |
| 2026-04-22 09:06 | 44.21509 | 43.09752 | 1050 ft | 11 kts | 83° |
| 2026-04-22 09:07 | 44.21526 | 43.09854 | 1050 ft | 11 kts | 77° |
| 2026-04-22 09:07 | 44.21542 | 43.09953 | 1050 ft | 10 kts | 77° |
| 2026-04-22 09:07 | 44.21559 | 43.10049 | 1050 ft | 10 kts | 77° |
| 2026-04-22 09:07 | 44.21574 | 43.10145 | 1051 ft | 10 kts | 77° |
| 2026-04-22 09:08 | 44.21610 | 43.10226 | 1051 ft | 10 kts | 35° |
| 2026-04-22 09:08 | 44.21669 | 43.10278 | 1049 ft | 10 kts | 32° |
| 2026-04-22 09:08 | 44.21729 | 43.10326 | 1050 ft | 10 kts | 17° |
| 2026-04-22 09:08 | 44.21782 | 43.10277 | 1053 ft | 10 kts | 302° |
| 2026-04-22 09:09 | 44.21834 | 43.10162 | 1051 ft | 35 kts | 302° |
| 2026-04-22 09:09 | 44.22109 | 43.09559 | 1056 ft | 111 kts | 302° |
| 2026-04-22 09:09 | 44.22645 | 43.08389 | 1108 ft | 171 kts | 303° |
| 2026-04-22 09:09 | 44.23368 | 43.06891 | 1580 ft | 200 kts | 305° |
| 2026-04-22 09:10 | 44.24163 | 43.05212 | 2411 ft | 207 kts | 302° |
| 2026-04-22 09:10 | 44.24871 | 43.03557 | 3642 ft | 192 kts | 303° |
| 2026-04-22 09:10 | 44.25531 | 43.02034 | 4767 ft | 177 kts | 304° |
| 2026-04-22 09:10 | 44.26174 | 43.00582 | 5420 ft | 180 kts | 301° |
| 2026-04-22 09:11 | 44.26873 | 42.99017 | 5669 ft | 201 kts | 301° |
| 2026-04-22 09:11 | 44.27648 | 42.97293 | 5812 ft | 219 kts | 301° |
| 2026-04-22 09:11 | 44.28493 | 42.95420 | 5973 ft | 237 kts | 301° |
| 2026-04-22 09:11 | 44.29404 | 42.93404 | 6168 ft | 256 kts | 301° |
| 2026-04-22 09:12 | 44.30636 | 42.91514 | 6445 ft | 274 kts | 328° |
| 2026-04-22 09:12 | 44.32451 | 42.90723 | 6937 ft | 285 kts | 356° |
| 2026-04-22 09:12 | 44.34396 | 42.91241 | 7515 ft | 291 kts | 26° |
| 2026-04-22 09:12 | 44.35979 | 42.92949 | 8142 ft | 290 kts | 54° |
| 2026-04-22 09:13 | 44.36842 | 42.95466 | 8654 ft | 290 kts | 84° |
| 2026-04-22 09:13 | 44.36718 | 42.98230 | 9214 ft | 284 kts | 114° |
| 2026-04-22 09:13 | 44.35929 | 43.00734 | 9915 ft | 282 kts | 122° |
| 2026-04-22 09:13 | 44.35022 | 43.03225 | 10238 ft | 297 kts | 123° |
| 2026-04-22 09:14 | 44.34041 | 43.05881 | 10387 ft | 317 kts | 122° |
| 2026-04-22 09:14 | 44.33027 | 43.08672 | 10528 ft | 336 kts | 122° |
| 2026-04-22 09:14 | 44.31966 | 43.11651 | 10838 ft | 348 kts | 121° |
| 2026-04-22 09:14 | 44.30889 | 43.14715 | 11370 ft | 353 kts | 121° |
| 2026-04-22 09:15 | 44.29805 | 43.17815 | 11899 ft | 359 kts | 121° |
| 2026-04-22 09:15 | 44.28697 | 43.20974 | 12401 ft | 366 kts | 121° |
| 2026-04-22 09:15 | 44.27584 | 43.24212 | 12926 ft | 375 kts | 118° |
| 2026-04-22 09:15 | 44.26672 | 43.27665 | 13488 ft | 384 kts | 113° |
| 2026-04-22 09:16 | 44.25871 | 43.31253 | 13995 ft | 391 kts | 112° |
| 2026-04-22 09:16 | 44.25097 | 43.34861 | 14506 ft | 396 kts | 111° |
| 2026-04-22 09:16 | 44.24295 | 43.38555 | 15062 ft | 400 kts | 112° |
| 2026-04-22 09:16 | 44.23464 | 43.42284 | 15629 ft | 404 kts | 112° |
| 2026-04-22 09:17 | 44.22609 | 43.46037 | 16152 ft | 409 kts | 112° |
| 2026-04-22 09:17 | 44.21733 | 43.49831 | 16703 ft | 413 kts | 112° |
| 2026-04-22 09:17 | 44.20840 | 43.53665 | 17251 ft | 418 kts | 112° |
| 2026-04-22 09:17 | 44.19936 | 43.57536 | 17782 ft | 423 kts | 112° |
| 2026-04-22 09:18 | 44.19021 | 43.61450 | 18269 ft | 428 kts | 112° |
| 2026-04-22 09:18 | 44.18094 | 43.65409 | 18756 ft | 431 kts | 112° |
| 2026-04-22 09:18 | 44.17191 | 43.69402 | 19264 ft | 435 kts | 107° |
| 2026-04-22 09:18 | 44.16921 | 43.73575 | 19710 ft | 445 kts | 85° |
| 2026-04-22 09:19 | 44.17347 | 43.77848 | 20255 ft | 446 kts | 82° |
| 2026-04-22 09:19 | 44.17830 | 43.82133 | 20747 ft | 449 kts | 82° |
| 2026-04-22 09:19 | 44.18319 | 43.86446 | 21200 ft | 453 kts | 82° |
| 2026-04-22 09:19 | 44.18803 | 43.90796 | 21649 ft | 455 kts | 82° |
| 2026-04-22 09:20 | 44.19275 | 43.95155 | 22244 ft | 455 kts | 82° |
| 2026-04-22 09:20 | 44.19737 | 43.99524 | 22739 ft | 457 kts | 82° |
| 2026-04-22 09:20 | 44.20187 | 44.03857 | 23150 ft | 460 kts | 82° |
| 2026-04-22 09:20 | 44.20641 | 44.08286 | 23548 ft | 463 kts | 82° |
| 2026-04-22 09:21 | 44.21094 | 44.12748 | 23910 ft | 466 kts | 82° |
| 2026-04-22 09:21 | 44.21547 | 44.17225 | 24258 ft | 468 kts | 82° |
| 2026-04-22 09:21 | 44.22000 | 44.21728 | 24603 ft | 471 kts | 82° |
| 2026-04-22 09:21 | 44.22456 | 44.26267 | 24941 ft | 473 kts | 82° |
| 2026-04-22 09:22 | 44.22911 | 44.30821 | 25284 ft | 476 kts | 83° |
| 2026-04-22 09:22 | 44.23368 | 44.35403 | 25618 ft | 478 kts | 83° |
| 2026-04-22 09:22 | 44.23818 | 44.39946 | 25943 ft | 481 kts | 83° |
| 2026-04-22 09:22 | 44.24276 | 44.44577 | 26266 ft | 483 kts | 83° |
| 2026-04-22 09:23 | 44.24734 | 44.49227 | 26586 ft | 485 kts | 83° |
| 2026-04-22 09:23 | 44.25193 | 44.53905 | 26897 ft | 488 kts | 83° |
| 2026-04-22 09:23 | 44.25650 | 44.58593 | 27236 ft | 488 kts | 83° |
| 2026-04-22 09:23 | 44.26107 | 44.63290 | 27589 ft | 489 kts | 83° |
| 2026-04-22 09:24 | 44.26563 | 44.68005 | 27866 ft | 492 kts | 83° |
| 2026-04-22 09:24 | 44.27020 | 44.72752 | 28122 ft | 495 kts | 83° |
| 2026-04-22 09:24 | 44.27471 | 44.77458 | 28397 ft | 497 kts | 83° |
| 2026-04-22 09:24 | 44.27929 | 44.82250 | 28678 ft | 499 kts | 83° |
| 2026-04-22 09:25 | 44.28385 | 44.87051 | 28965 ft | 501 kts | 83° |
| 2026-04-22 09:25 | 44.28842 | 44.91884 | 29212 ft | 503 kts | 83° |
| 2026-04-22 09:25 | 44.29299 | 44.96737 | 29464 ft | 505 kts | 83° |
| 2026-04-22 09:25 | 44.29756 | 45.01606 | 29724 ft | 507 kts | 83° |
| 2026-04-22 09:26 | 44.30211 | 45.06490 | 30050 ft | 506 kts | 83° |
| 2026-04-22 09:26 | 44.30663 | 45.11355 | 30387 ft | 505 kts | 83° |
| 2026-04-22 09:26 | 44.31105 | 45.16140 | 30737 ft | 503 kts | 83° |
| 2026-04-22 09:26 | 44.31551 | 45.20982 | 31025 ft | 503 kts | 83° |
| 2026-04-22 09:27 | 44.31993 | 45.25820 | 31297 ft | 502 kts | 83° |
| 2026-04-22 09:27 | 44.32434 | 45.30659 | 31586 ft | 502 kts | 84° |
| 2026-04-22 09:27 | 44.32872 | 45.35491 | 31886 ft | 501 kts | 84° |
| 2026-04-22 09:27 | 44.33307 | 45.40316 | 32149 ft | 501 kts | 84° |
| 2026-04-22 09:28 | 44.33741 | 45.45141 | 32427 ft | 500 kts | 84° |
| 2026-04-22 09:28 | 44.34166 | 45.49898 | 32710 ft | 500 kts | 84° |
| 2026-04-22 09:28 | 44.34594 | 45.54714 | 32984 ft | 499 kts | 84° |
| 2026-04-22 09:28 | 44.35019 | 45.59517 | 33249 ft | 498 kts | 84° |
| 2026-04-22 09:29 | 44.35442 | 45.64320 | 33517 ft | 498 kts | 84° |
| 2026-04-22 09:29 | 44.35862 | 45.69117 | 33758 ft | 498 kts | 84° |
| 2026-04-22 09:29 | 44.36281 | 45.73919 | 33982 ft | 497 kts | 84° |
| 2026-04-22 09:29 | 44.36697 | 45.78710 | 34193 ft | 497 kts | 85° |
| 2026-04-22 09:30 | 44.37112 | 45.83516 | 34330 ft | 498 kts | 84° |
| 2026-04-22 09:30 | 44.37523 | 45.88306 | 34599 ft | 495 kts | 84° |
| 2026-04-22 09:30 | 44.37926 | 45.93009 | 34848 ft | 493 kts | 84° |
| 2026-04-22 09:30 | 44.38331 | 45.97769 | 34996 ft | 494 kts | 84° |
| 2026-04-22 09:31 | 44.38735 | 46.02550 | 35122 ft | 495 kts | 84° |
| 2026-04-22 09:31 | 44.39137 | 46.07328 | 35297 ft | 495 kts | 84° |
| 2026-04-22 09:31 | 44.39538 | 46.12106 | 35500 ft | 494 kts | 84° |
| 2026-04-22 09:31 | 44.39933 | 46.16852 | 35667 ft | 494 kts | 84° |
| 2026-04-22 09:32 | 44.40331 | 46.21653 | 35844 ft | 494 kts | 85° |
| 2026-04-22 09:32 | 44.40721 | 46.26371 | 36048 ft | 493 kts | 85° |
| 2026-04-22 09:32 | 44.41110 | 46.31120 | 36211 ft | 492 kts | 85° |
| 2026-04-22 09:32 | 44.41499 | 46.35881 | 36330 ft | 492 kts | 85° |
| 2026-04-22 09:33 | 44.41885 | 46.40635 | 36462 ft | 491 kts | 85° |
| 2026-04-22 09:33 | 44.42269 | 46.45380 | 36586 ft | 490 kts | 85° |
| 2026-04-22 09:33 | 44.42649 | 46.50115 | 36690 ft | 489 kts | 85° |
| 2026-04-22 09:33 | 44.43025 | 46.54812 | 36812 ft | 484 kts | 85° |
| 2026-04-22 09:34 | 44.43397 | 46.59481 | 36875 ft | 483 kts | 85° |
| 2026-04-22 09:34 | 44.44131 | 46.68807 | 36899 ft | 488 kts | 85° |
| 2026-04-22 09:35 | 44.45238 | 46.83030 | 36895 ft | 491 kts | 85° |
| 2026-04-22 09:35 | 44.45967 | 46.92514 | 36878 ft | 486 kts | 85° |
| 2026-04-22 09:36 | 44.46673 | 47.01789 | 36884 ft | 480 kts | 85° |
| 2026-04-22 09:36 | 44.47369 | 47.11061 | 36900 ft | 477 kts | 86° |
| 2026-04-22 09:37 | 44.48053 | 47.20276 | 36892 ft | 475 kts | 86° |
| 2026-04-22 09:37 | 44.48728 | 47.29458 | 36897 ft | 473 kts | 86° |
| 2026-04-22 09:38 | 44.49390 | 47.38555 | 36904 ft | 473 kts | 86° |
| 2026-04-22 09:38 | 44.50187 | 47.47699 | 36883 ft | 476 kts | 74° |
| 2026-04-22 09:39 | 44.51550 | 47.51918 | 36928 ft | 478 kts | 55° |
| 2026-04-22 09:39 | 44.53726 | 47.55432 | 36902 ft | 479 kts | 37° |
| 2026-04-22 09:39 | 44.56495 | 47.57961 | 36931 ft | 475 kts | 21° |
| 2026-04-22 09:39 | 44.59600 | 47.59445 | 36902 ft | 470 kts | 4° |
| 2026-04-22 09:40 | 44.66024 | 47.59739 | 36914 ft | 467 kts | 354° |
| 2026-04-22 09:40 | 44.72563 | 47.59540 | 36915 ft | 473 kts | 354° |
| 2026-04-22 09:41 | 44.79170 | 47.59386 | 36907 ft | 472 kts | 354° |
| 2026-04-22 09:41 | 44.85644 | 47.59314 | 36905 ft | 462 kts | 355° |
| 2026-04-22 09:42 | 44.92027 | 47.59260 | 36911 ft | 461 kts | 355° |
| 2026-04-22 09:42 | 44.98446 | 47.59206 | 36917 ft | 462 kts | 355° |
| 2026-04-22 09:43 | 45.04878 | 47.59151 | 36918 ft | 463 kts | 355° |
| 2026-04-22 09:43 | 45.11329 | 47.59094 | 36915 ft | 464 kts | 355° |
| 2026-04-22 09:44 | 45.17752 | 47.59038 | 36912 ft | 466 kts | 355° |
| 2026-04-22 09:44 | 45.24246 | 47.58981 | 36913 ft | 468 kts | 355° |
| 2026-04-22 09:45 | 45.30762 | 47.58924 | 36915 ft | 469 kts | 355° |
| 2026-04-22 09:45 | 45.37291 | 47.58867 | 36903 ft | 470 kts | 355° |
| 2026-04-22 09:46 | 45.43794 | 47.58810 | 36911 ft | 470 kts | 355° |
| 2026-04-22 09:46 | 45.50320 | 47.58753 | 36912 ft | 471 kts | 355° |
| 2026-04-22 09:47 | 45.56902 | 47.58695 | 36908 ft | 471 kts | 355° |
| 2026-04-22 09:47 | 45.63432 | 47.58638 | 36902 ft | 471 kts | 355° |
| 2026-04-22 09:48 | 45.69956 | 47.58580 | 36901 ft | 471 kts | 355° |
| 2026-04-22 09:48 | 45.76517 | 47.58521 | 36902 ft | 471 kts | 355° |
| 2026-04-22 09:49 | 45.83048 | 47.58462 | 36901 ft | 470 kts | 355° |
| 2026-04-22 09:49 | 45.89586 | 47.58404 | 36895 ft | 470 kts | 355° |
| 2026-04-22 09:50 | 45.96120 | 47.58345 | 36888 ft | 470 kts | 355° |
| 2026-04-22 09:50 | 46.02642 | 47.58287 | 36889 ft | 470 kts | 355° |
| 2026-04-22 09:51 | 46.09168 | 47.58228 | 36891 ft | 470 kts | 355° |
| 2026-04-22 09:51 | 46.15708 | 47.58169 | 36896 ft | 470 kts | 355° |
| 2026-04-22 09:52 | 46.22152 | 47.57593 | 36857 ft | 457 kts | 336° |
| 2026-04-22 09:52 | 46.24982 | 47.55719 | 36931 ft | 443 kts | 321° |
| 2026-04-22 09:52 | 46.27350 | 47.53027 | 36882 ft | 433 kts | 307° |
| 2026-04-22 09:53 | 46.30800 | 47.46089 | 36887 ft | 425 kts | 297° |
| 2026-04-22 09:53 | 46.33946 | 47.38830 | 36883 ft | 427 kts | 296° |
| 2026-04-22 09:54 | 46.37121 | 47.31538 | 36880 ft | 429 kts | 297° |
| 2026-04-22 09:54 | 46.40342 | 47.24230 | 36890 ft | 432 kts | 297° |
| 2026-04-22 09:55 | 46.43566 | 47.16939 | 36879 ft | 434 kts | 297° |
| 2026-04-22 09:55 | 46.46824 | 47.09563 | 36882 ft | 434 kts | 297° |
| 2026-04-22 09:56 | 46.50072 | 47.02188 | 36871 ft | 433 kts | 297° |
| 2026-04-22 09:56 | 46.53308 | 46.94817 | 36876 ft | 432 kts | 297° |
| 2026-04-22 09:57 | 46.56506 | 46.87514 | 36866 ft | 431 kts | 296° |
| 2026-04-22 09:57 | 46.59713 | 46.80171 | 36865 ft | 429 kts | 296° |
| 2026-04-22 09:58 | 46.62901 | 46.72851 | 36862 ft | 428 kts | 296° |
| 2026-04-22 09:58 | 46.66073 | 46.65548 | 36883 ft | 427 kts | 296° |
| 2026-04-22 09:59 | 46.69236 | 46.58246 | 36872 ft | 426 kts | 296° |
| 2026-04-22 09:59 | 46.72371 | 46.50988 | 36862 ft | 426 kts | 296° |
| 2026-04-22 10:00 | 46.75524 | 46.43671 | 36862 ft | 426 kts | 296° |
| 2026-04-22 10:00 | 46.78672 | 46.36346 | 36898 ft | 427 kts | 296° |
| 2026-04-22 10:01 | 46.81827 | 46.28983 | 36873 ft | 428 kts | 296° |
| 2026-04-22 10:01 | 46.84967 | 46.21638 | 36862 ft | 430 kts | 296° |
| 2026-04-22 10:02 | 46.88132 | 46.14216 | 36860 ft | 431 kts | 296° |
| 2026-04-22 10:02 | 46.91493 | 46.06922 | 36848 ft | 439 kts | 307° |
| 2026-04-22 10:03 | 46.96295 | 46.01180 | 36852 ft | 457 kts | 326° |
| 2026-04-22 10:03 | 47.02019 | 45.97117 | 36853 ft | 462 kts | 329° |
| 2026-04-22 10:04 | 47.07883 | 45.93159 | 36842 ft | 461 kts | 329° |
| 2026-04-22 10:04 | 47.13650 | 45.89189 | 36869 ft | 460 kts | 329° |
| 2026-04-22 10:05 | 47.19428 | 45.85141 | 36848 ft | 460 kts | 328° |
| 2026-04-22 10:05 | 47.25191 | 45.81076 | 36836 ft | 459 kts | 328° |
| 2026-04-22 10:06 | 47.30943 | 45.77011 | 36846 ft | 458 kts | 328° |
| 2026-04-22 10:06 | 47.36643 | 45.72974 | 36839 ft | 457 kts | 328° |
| 2026-04-22 10:07 | 47.42364 | 45.68914 | 36830 ft | 456 kts | 328° |
| 2026-04-22 10:07 | 47.48072 | 45.64853 | 36825 ft | 455 kts | 328° |
| 2026-04-22 10:08 | 47.53771 | 45.60788 | 36839 ft | 455 kts | 328° |
| 2026-04-22 10:08 | 47.59454 | 45.56723 | 36829 ft | 458 kts | 328° |
| 2026-04-22 10:09 | 47.65186 | 45.52616 | 36818 ft | 457 kts | 328° |
| 2026-04-22 10:09 | 47.70906 | 45.48507 | 36814 ft | 457 kts | 328° |
| 2026-04-22 10:10 | 47.76629 | 45.44387 | 36806 ft | 457 kts | 328° |
| 2026-04-22 10:10 | 47.81940 | 45.39445 | 36808 ft | 445 kts | 313° |
| 2026-04-22 10:11 | 47.86442 | 45.33266 | 36802 ft | 443 kts | 311° |
| 2026-04-22 10:11 | 47.90964 | 45.27023 | 36799 ft | 443 kts | 312° |
| 2026-04-22 10:12 | 47.95521 | 45.20823 | 36810 ft | 443 kts | 312° |
| 2026-04-22 10:12 | 48.00085 | 45.14627 | 36794 ft | 444 kts | 312° |
| 2026-04-22 10:13 | 48.04814 | 45.08762 | 36785 ft | 448 kts | 320° |
| 2026-04-22 10:13 | 48.10024 | 45.03603 | 36782 ft | 450 kts | 322° |
| 2026-04-22 10:14 | 48.15260 | 44.98495 | 36799 ft | 449 kts | 321° |
| 2026-04-22 10:14 | 48.20465 | 44.93306 | 36784 ft | 449 kts | 321° |
| 2026-04-22 10:15 | 48.25618 | 44.88106 | 36773 ft | 449 kts | 321° |
| 2026-04-22 10:15 | 48.30802 | 44.82854 | 36768 ft | 449 kts | 321° |
| 2026-04-22 10:16 | 48.35981 | 44.77597 | 36780 ft | 450 kts | 321° |
| 2026-04-22 10:16 | 48.41169 | 44.72318 | 36767 ft | 450 kts | 321° |
| 2026-04-22 10:17 | 48.46358 | 44.67027 | 36759 ft | 451 kts | 321° |
| 2026-04-22 10:17 | 48.51513 | 44.61758 | 36754 ft | 451 kts | 321° |
| 2026-04-22 10:18 | 48.56704 | 44.56431 | 36760 ft | 451 kts | 321° |
| 2026-04-22 10:18 | 48.61902 | 44.51082 | 36749 ft | 452 kts | 321° |
| 2026-04-22 10:19 | 48.67095 | 44.45724 | 36749 ft | 452 kts | 321° |
| 2026-04-22 10:19 | 48.72262 | 44.40381 | 36749 ft | 453 kts | 321° |
| 2026-04-22 10:20 | 48.77494 | 44.35027 | 36752 ft | 456 kts | 326° |
| 2026-04-22 10:20 | 48.83351 | 44.31134 | 36754 ft | 461 kts | 334° |
| 2026-04-22 10:21 | 48.89140 | 44.27188 | 36754 ft | 458 kts | 330° |
| 2026-04-22 10:21 | 48.94856 | 44.22903 | 36741 ft | 458 kts | 329° |
| 2026-04-22 10:22 | 49.00589 | 44.18635 | 36736 ft | 459 kts | 330° |
| 2026-04-22 10:22 | 49.06346 | 44.14415 | 36727 ft | 459 kts | 330° |
| 2026-04-22 10:23 | 49.12105 | 44.10217 | 36719 ft | 459 kts | 330° |
| 2026-04-22 10:23 | 49.17824 | 44.06043 | 36721 ft | 458 kts | 330° |
| 2026-04-22 10:24 | 49.23579 | 44.01828 | 36729 ft | 458 kts | 331° |
| 2026-04-22 10:24 | 49.29329 | 43.97604 | 36714 ft | 458 kts | 331° |
| 2026-04-22 10:25 | 49.35079 | 43.93369 | 36717 ft | 459 kts | 331° |
| 2026-04-22 10:25 | 49.40792 | 43.89150 | 36723 ft | 459 kts | 331° |
| 2026-04-22 10:26 | 49.46665 | 43.85249 | 36712 ft | 463 kts | 339° |
| 2026-04-22 10:26 | 49.53038 | 43.83910 | 36725 ft | 471 kts | 6° |
| 2026-04-22 10:27 | 49.59340 | 43.86777 | 36729 ft | 475 kts | 19° |
| 2026-04-22 10:27 | 49.65509 | 43.90470 | 36715 ft | 476 kts | 20° |
| 2026-04-22 10:28 | 49.71631 | 43.94217 | 36704 ft | 477 kts | 20° |
| 2026-04-22 10:28 | 49.77796 | 43.98019 | 36710 ft | 477 kts | 20° |
| 2026-04-22 10:29 | 49.83963 | 44.01840 | 36732 ft | 478 kts | 20° |
| 2026-04-22 10:29 | 49.90142 | 44.05676 | 36717 ft | 479 kts | 20° |
| 2026-04-22 10:30 | 49.96289 | 44.09500 | 36708 ft | 479 kts | 20° |
| 2026-04-22 10:30 | 50.02472 | 44.13358 | 36722 ft | 479 kts | 20° |
| 2026-04-22 10:31 | 50.08652 | 44.17226 | 36724 ft | 479 kts | 20° |
| 2026-04-22 10:31 | 50.14823 | 44.21095 | 36721 ft | 478 kts | 20° |
| 2026-04-22 10:32 | 50.20946 | 44.24941 | 36730 ft | 477 kts | 20° |
| 2026-04-22 10:32 | 50.27093 | 44.28812 | 36730 ft | 477 kts | 20° |
| 2026-04-22 10:33 | 50.33228 | 44.32684 | 36744 ft | 476 kts | 20° |
| 2026-04-22 10:33 | 50.39394 | 44.36573 | 36744 ft | 476 kts | 20° |
| 2026-04-22 10:34 | 50.45510 | 44.40436 | 36739 ft | 475 kts | 20° |
| 2026-04-22 10:34 | 50.51622 | 44.44306 | 36746 ft | 474 kts | 20° |
| 2026-04-22 10:35 | 50.54769 | 44.45769 | 36721 ft | 470 kts | 5° |
| 2026-04-22 10:35 | 50.57996 | 44.45818 | 36763 ft | 462 kts | 348° |
| 2026-04-22 10:35 | 50.64057 | 44.42997 | 36758 ft | 457 kts | 336° |
| 2026-04-22 10:36 | 50.69986 | 44.39402 | 36775 ft | 457 kts | 336° |
| 2026-04-22 10:36 | 50.75904 | 44.35714 | 36765 ft | 457 kts | 335° |
| 2026-04-22 10:37 | 50.84732 | 44.29954 | 36758 ft | 457 kts | 326° |
| 2026-04-22 10:38 | 50.89735 | 44.23967 | 36786 ft | 454 kts | 316° |
| 2026-04-22 10:38 | 50.94549 | 44.17463 | 36778 ft | 456 kts | 318° |
| 2026-04-22 10:39 | 50.99503 | 44.11187 | 36783 ft | 456 kts | 320° |
| 2026-04-22 10:39 | 51.04557 | 44.05088 | 36785 ft | 456 kts | 320° |
| 2026-04-22 10:40 | 51.09631 | 43.99050 | 36786 ft | 455 kts | 321° |
| 2026-04-22 10:40 | 51.14662 | 43.93051 | 36796 ft | 455 kts | 321° |
| 2026-04-22 10:41 | 51.19718 | 43.86993 | 36792 ft | 454 kts | 321° |
| 2026-04-22 10:41 | 51.24756 | 43.80933 | 36796 ft | 453 kts | 321° |
| 2026-04-22 10:42 | 51.29791 | 43.74856 | 36791 ft | 454 kts | 320° |
| 2026-04-22 10:42 | 51.34783 | 43.68815 | 36796 ft | 453 kts | 321° |
| 2026-04-22 10:43 | 51.39800 | 43.62728 | 36793 ft | 452 kts | 321° |
| 2026-04-22 10:43 | 51.44807 | 43.56635 | 36800 ft | 451 kts | 320° |
| 2026-04-22 10:44 | 51.49799 | 43.50542 | 36798 ft | 451 kts | 320° |
| 2026-04-22 10:44 | 51.54751 | 43.44483 | 36815 ft | 450 kts | 321° |
| 2026-04-22 10:45 | 51.59733 | 43.38368 | 36804 ft | 450 kts | 321° |
| 2026-04-22 10:45 | 51.64707 | 43.32248 | 36812 ft | 450 kts | 320° |
| 2026-04-22 10:46 | 51.69681 | 43.26109 | 36811 ft | 450 kts | 320° |
| 2026-04-22 10:46 | 51.74620 | 43.19995 | 36815 ft | 451 kts | 321° |
| 2026-04-22 10:47 | 51.79593 | 43.13823 | 36820 ft | 451 kts | 321° |
| 2026-04-22 10:47 | 51.84556 | 43.07645 | 36819 ft | 451 kts | 320° |
| 2026-04-22 10:48 | 51.89525 | 43.01443 | 36829 ft | 451 kts | 320° |
| 2026-04-22 10:48 | 51.94496 | 42.95220 | 36821 ft | 452 kts | 320° |
| 2026-04-22 10:49 | 51.99467 | 42.88978 | 36831 ft | 452 kts | 321° |
| 2026-04-22 10:49 | 52.04429 | 42.82731 | 36826 ft | 452 kts | 321° |
| 2026-04-22 10:50 | 52.09359 | 42.76506 | 36829 ft | 452 kts | 321° |
| 2026-04-22 10:50 | 52.14313 | 42.70231 | 36827 ft | 451 kts | 321° |
| 2026-04-22 10:51 | 52.19261 | 42.63947 | 36833 ft | 451 kts | 320° |
| 2026-04-22 10:51 | 52.23367 | 42.58718 | 36835 ft | 450 kts | 320° |
| 2026-04-22 10:52 | 52.29103 | 42.51392 | 36834 ft | 450 kts | 320° |
| 2026-04-22 10:52 | 52.34025 | 42.45086 | 36836 ft | 450 kts | 320° |
| 2026-04-22 10:53 | 52.38944 | 42.38765 | 36847 ft | 449 kts | 321° |
| 2026-04-22 10:53 | 52.43029 | 42.33503 | 36839 ft | 449 kts | 321° |
| 2026-04-22 10:54 | 52.48738 | 42.26126 | 36837 ft | 449 kts | 320° |
| 2026-04-22 10:54 | 52.53642 | 42.19769 | 36833 ft | 449 kts | 320° |
| 2026-04-22 10:55 | 52.57715 | 42.14475 | 36838 ft | 449 kts | 320° |
| 2026-04-22 10:55 | 52.62610 | 42.08096 | 36838 ft | 449 kts | 321° |
| 2026-04-22 10:56 | 52.67506 | 42.01697 | 36840 ft | 449 kts | 320° |
| 2026-04-22 10:56 | 52.73181 | 41.94228 | 36834 ft | 449 kts | 320° |
| 2026-04-22 10:57 | 52.77209 | 41.88818 | 36834 ft | 449 kts | 320° |
| 2026-04-22 10:57 | 52.82045 | 41.82285 | 36831 ft | 449 kts | 320° |
| 2026-04-22 10:58 | 52.86886 | 41.75738 | 36835 ft | 449 kts | 320° |
| 2026-04-22 10:58 | 52.91724 | 41.69184 | 36830 ft | 449 kts | 320° |
| 2026-04-22 10:59 | 52.96558 | 41.62618 | 36823 ft | 449 kts | 320° |
| 2026-04-22 10:59 | 53.01358 | 41.56079 | 36829 ft | 449 kts | 320° |
| 2026-04-22 11:00 | 53.06189 | 41.49476 | 36820 ft | 450 kts | 320° |
| 2026-04-22 11:00 | 53.11019 | 41.42856 | 36864 ft | 451 kts | 320° |
| 2026-04-22 11:00 | 53.13435 | 41.39536 | 37022 ft | 451 kts | 320° |
| 2026-04-22 11:01 | 53.15819 | 41.36257 | 37221 ft | 450 kts | 320° |
| 2026-04-22 11:01 | 53.18225 | 41.32944 | 37404 ft | 449 kts | 320° |
| 2026-04-22 11:01 | 53.20631 | 41.29617 | 37533 ft | 449 kts | 319° |
| 2026-04-22 11:01 | 53.22859 | 41.25965 | 37645 ft | 449 kts | 310° |
| 2026-04-22 11:02 | 53.24704 | 41.21773 | 37816 ft | 448 kts | 302° |
| 2026-04-22 11:02 | 53.27995 | 41.12871 | 37828 ft | 452 kts | 301° |
| 2026-04-22 11:03 | 53.31265 | 41.03882 | 37816 ft | 452 kts | 301° |
| 2026-04-22 11:03 | 53.34537 | 40.94970 | 37809 ft | 453 kts | 302° |
| 2026-04-22 11:04 | 53.37846 | 40.86003 | 37819 ft | 452 kts | 302° |
| 2026-04-22 11:04 | 53.41150 | 40.77040 | 37808 ft | 452 kts | 302° |
| 2026-04-22 11:05 | 53.44444 | 40.68073 | 37795 ft | 451 kts | 302° |
| 2026-04-22 11:05 | 53.47704 | 40.59164 | 37813 ft | 450 kts | 302° |
| 2026-04-22 11:06 | 53.50972 | 40.50197 | 37807 ft | 450 kts | 302° |
| 2026-04-22 11:06 | 53.54229 | 40.41230 | 37796 ft | 449 kts | 302° |
| 2026-04-22 11:07 | 53.57477 | 40.32254 | 37803 ft | 449 kts | 302° |
| 2026-04-22 11:07 | 53.60692 | 40.23339 | 37807 ft | 448 kts | 302° |
| 2026-04-22 11:08 | 53.63921 | 40.14352 | 37805 ft | 448 kts | 302° |
| 2026-04-22 11:08 | 53.67144 | 40.05349 | 37709 ft | 451 kts | 302° |
| 2026-04-22 11:08 | 53.68770 | 40.00797 | 37412 ft | 455 kts | 302° |
| 2026-04-22 11:09 | 53.70398 | 39.96228 | 37163 ft | 453 kts | 302° |
| 2026-04-22 11:09 | 53.72012 | 39.91690 | 36894 ft | 448 kts | 302° |
| 2026-04-22 11:09 | 53.73602 | 39.87208 | 36613 ft | 441 kts | 302° |
| 2026-04-22 11:09 | 53.75168 | 39.82787 | 36273 ft | 436 kts | 302° |
| 2026-04-22 11:10 | 53.76715 | 39.78415 | 35893 ft | 432 kts | 302° |
| 2026-04-22 11:10 | 53.78229 | 39.74127 | 35511 ft | 428 kts | 302° |
| 2026-04-22 11:10 | 53.79748 | 39.69818 | 35133 ft | 425 kts | 302° |
| 2026-04-22 11:10 | 53.81257 | 39.65532 | 34745 ft | 422 kts | 302° |
| 2026-04-22 11:11 | 53.82752 | 39.61275 | 34344 ft | 420 kts | 303° |
| 2026-04-22 11:11 | 53.84238 | 39.57038 | 33959 ft | 417 kts | 303° |
| 2026-04-22 11:11 | 53.85716 | 39.52819 | 33513 ft | 415 kts | 303° |
| 2026-04-22 11:11 | 53.87181 | 39.48627 | 33092 ft | 412 kts | 303° |
| 2026-04-22 11:12 | 53.88635 | 39.44457 | 32691 ft | 409 kts | 304° |
| 2026-04-22 11:12 | 53.90054 | 39.40384 | 32300 ft | 405 kts | 304° |
| 2026-04-22 11:12 | 53.91480 | 39.36283 | 31940 ft | 402 kts | 304° |
| 2026-04-22 11:12 | 53.92890 | 39.32221 | 31567 ft | 398 kts | 304° |
| 2026-04-22 11:13 | 53.94291 | 39.28180 | 31191 ft | 395 kts | 304° |
| 2026-04-22 11:13 | 53.95678 | 39.24170 | 30832 ft | 392 kts | 305° |
| 2026-04-22 11:13 | 53.97054 | 39.20188 | 30477 ft | 390 kts | 305° |
| 2026-04-22 11:13 | 53.98420 | 39.16228 | 30124 ft | 387 kts | 305° |
| 2026-04-22 11:14 | 53.99775 | 39.12295 | 29747 ft | 385 kts | 305° |
| 2026-04-22 11:14 | 54.01102 | 39.08436 | 29336 ft | 382 kts | 305° |
| 2026-04-22 11:14 | 54.02436 | 39.04552 | 28964 ft | 378 kts | 305° |
| 2026-04-22 11:14 | 54.03755 | 39.00704 | 28583 ft | 375 kts | 305° |
| 2026-04-22 11:15 | 54.05062 | 38.96884 | 28238 ft | 372 kts | 305° |
| 2026-04-22 11:15 | 54.06359 | 38.93091 | 27858 ft | 369 kts | 304° |
| 2026-04-22 11:15 | 54.07645 | 38.89322 | 27502 ft | 367 kts | 304° |
| 2026-04-22 11:15 | 54.08921 | 38.85578 | 27133 ft | 364 kts | 304° |
| 2026-04-22 11:16 | 54.10170 | 38.81907 | 26793 ft | 362 kts | 304° |
| 2026-04-22 11:16 | 54.11428 | 38.78203 | 26405 ft | 360 kts | 306° |
| 2026-04-22 11:16 | 54.12677 | 38.74519 | 26076 ft | 357 kts | 306° |
| 2026-04-22 11:16 | 54.13914 | 38.70865 | 25725 ft | 356 kts | 306° |
| 2026-04-22 11:17 | 54.15148 | 38.67217 | 25378 ft | 354 kts | 305° |
| 2026-04-22 11:17 | 54.16375 | 38.63584 | 25036 ft | 352 kts | 305° |
| 2026-04-22 11:17 | 54.17593 | 38.59972 | 24705 ft | 351 kts | 305° |
| 2026-04-22 11:17 | 54.18808 | 38.56366 | 24356 ft | 350 kts | 304° |
| 2026-04-22 11:18 | 54.20001 | 38.52818 | 24025 ft | 349 kts | 304° |
| 2026-04-22 11:18 | 54.21204 | 38.49234 | 23686 ft | 348 kts | 304° |
| 2026-04-22 11:18 | 54.22404 | 38.45654 | 23342 ft | 347 kts | 304° |
| 2026-04-22 11:18 | 54.23599 | 38.42085 | 22943 ft | 345 kts | 303° |
| 2026-04-22 11:19 | 54.24788 | 38.38525 | 22579 ft | 343 kts | 303° |
| 2026-04-22 11:19 | 54.25965 | 38.34997 | 22220 ft | 341 kts | 304° |
| 2026-04-22 11:19 | 54.27134 | 38.31487 | 21904 ft | 338 kts | 304° |
| 2026-04-22 11:19 | 54.28295 | 38.27998 | 21557 ft | 337 kts | 304° |
| 2026-04-22 11:20 | 54.29450 | 38.24522 | 21227 ft | 335 kts | 304° |
| 2026-04-22 11:20 | 54.30583 | 38.21108 | 20892 ft | 333 kts | 304° |
| 2026-04-22 11:20 | 54.31723 | 38.17667 | 20576 ft | 332 kts | 303° |
| 2026-04-22 11:20 | 54.32858 | 38.14238 | 20245 ft | 330 kts | 303° |
| 2026-04-22 11:21 | 54.33986 | 38.10826 | 19922 ft | 329 kts | 303° |
| 2026-04-22 11:21 | 54.35108 | 38.07424 | 19599 ft | 327 kts | 303° |
| 2026-04-22 11:21 | 54.36226 | 38.04030 | 19278 ft | 326 kts | 303° |
| 2026-04-22 11:21 | 54.37339 | 38.00649 | 18962 ft | 325 kts | 302° |
| 2026-04-22 11:22 | 54.38448 | 37.97276 | 18639 ft | 324 kts | 302° |
| 2026-04-22 11:22 | 54.39550 | 37.93917 | 18323 ft | 323 kts | 302° |
| 2026-04-22 11:22 | 54.40634 | 37.90608 | 17983 ft | 322 kts | 302° |
| 2026-04-22 11:22 | 54.41729 | 37.87260 | 17627 ft | 321 kts | 302° |
| 2026-04-22 11:23 | 54.42817 | 37.83931 | 17297 ft | 319 kts | 302° |
| 2026-04-22 11:23 | 54.43898 | 37.80619 | 16982 ft | 317 kts | 302° |
| 2026-04-22 11:23 | 54.44973 | 37.77319 | 16681 ft | 315 kts | 302° |
| 2026-04-22 11:23 | 54.46038 | 37.74045 | 16347 ft | 314 kts | 301° |
| 2026-04-22 11:24 | 54.47098 | 37.70783 | 16037 ft | 312 kts | 301° |
| 2026-04-22 11:24 | 54.48154 | 37.67529 | 15720 ft | 311 kts | 301° |
| 2026-04-22 11:24 | 54.49190 | 37.64333 | 15412 ft | 310 kts | 301° |
| 2026-04-22 11:24 | 54.50235 | 37.61105 | 15104 ft | 308 kts | 301° |
| 2026-04-22 11:25 | 54.51277 | 37.57884 | 14801 ft | 308 kts | 301° |
| 2026-04-22 11:25 | 54.52315 | 37.54668 | 14483 ft | 307 kts | 301° |
| 2026-04-22 11:25 | 54.53352 | 37.51452 | 14172 ft | 307 kts | 301° |
| 2026-04-22 11:25 | 54.54385 | 37.48243 | 13857 ft | 306 kts | 300° |
| 2026-04-22 11:26 | 54.55415 | 37.45039 | 13541 ft | 306 kts | 300° |
| 2026-04-22 11:26 | 54.56444 | 37.41837 | 13195 ft | 305 kts | 300° |
| 2026-04-22 11:26 | 54.57454 | 37.38689 | 12876 ft | 304 kts | 300° |
| 2026-04-22 11:26 | 54.58472 | 37.35511 | 12555 ft | 302 kts | 300° |
| 2026-04-22 11:27 | 54.59485 | 37.32353 | 12249 ft | 300 kts | 301° |
| 2026-04-22 11:27 | 54.60828 | 37.29650 | 11926 ft | 297 kts | 325° |
| 2026-04-22 11:27 | 54.62684 | 37.28189 | 11677 ft | 293 kts | 347° |
| 2026-04-22 11:27 | 54.64694 | 37.27959 | 11480 ft | 288 kts | 7° |
| 2026-04-22 11:28 | 54.66620 | 37.28814 | 11300 ft | 284 kts | 16° |
| 2026-04-22 11:28 | 54.68503 | 37.29869 | 11101 ft | 285 kts | 16° |
| 2026-04-22 11:28 | 54.70337 | 37.30900 | 11097 ft | 277 kts | 16° |
| 2026-04-22 11:28 | 54.72168 | 37.31916 | 10958 ft | 276 kts | 16° |
| 2026-04-22 11:29 | 54.73997 | 37.32922 | 10774 ft | 276 kts | 16° |
| 2026-04-22 11:29 | 54.75842 | 37.33902 | 10589 ft | 278 kts | 11° |
| 2026-04-22 11:29 | 54.77765 | 37.34247 | 10416 ft | 278 kts | 359° |
| 2026-04-22 11:29 | 54.79698 | 37.34281 | 10235 ft | 277 kts | 359° |
| 2026-04-22 11:30 | 54.81610 | 37.34318 | 10032 ft | 272 kts | 359° |
| 2026-04-22 11:30 | 54.83487 | 37.34373 | 9844 ft | 267 kts | 360° |
| 2026-04-22 11:30 | 54.85305 | 37.34444 | 9674 ft | 263 kts | 0° |
| 2026-04-22 11:30 | 54.87128 | 37.34526 | 9476 ft | 262 kts | 360° |
| 2026-04-22 11:31 | 54.88951 | 37.34614 | 9285 ft | 262 kts | 359° |
| 2026-04-22 11:31 | 54.90756 | 37.34703 | 9120 ft | 258 kts | 359° |
| 2026-04-22 11:31 | 54.92539 | 37.34793 | 9032 ft | 254 kts | 360° |
| 2026-04-22 11:31 | 54.94285 | 37.34892 | 9014 ft | 249 kts | 0° |
| 2026-04-22 11:32 | 54.96005 | 37.34992 | 9026 ft | 248 kts | 360° |
| 2026-04-22 11:32 | 54.97745 | 37.35091 | 9032 ft | 252 kts | 0° |
| 2026-04-22 11:32 | 54.99512 | 37.35192 | 9029 ft | 255 kts | 0° |
| 2026-04-22 11:32 | 55.01256 | 37.35293 | 9012 ft | 252 kts | 360° |
| 2026-04-22 11:33 | 55.02991 | 37.35393 | 8986 ft | 248 kts | 360° |
| 2026-04-22 11:33 | 55.04712 | 37.35492 | 8779 ft | 245 kts | 360° |
| 2026-04-22 11:33 | 55.06399 | 37.35589 | 8587 ft | 240 kts | 360° |
| 2026-04-22 11:33 | 55.08053 | 37.35684 | 8425 ft | 236 kts | 360° |
| 2026-04-22 11:34 | 55.09693 | 37.35779 | 8260 ft | 236 kts | 359° |
| 2026-04-22 11:34 | 55.11338 | 37.35874 | 8088 ft | 238 kts | 360° |
| 2026-04-22 11:34 | 55.13003 | 37.35969 | 7928 ft | 241 kts | 359° |
| 2026-04-22 11:34 | 55.14657 | 37.36065 | 7751 ft | 241 kts | 360° |
| 2026-04-22 11:35 | 55.16328 | 37.36162 | 7586 ft | 240 kts | 360° |
| 2026-04-22 11:35 | 55.17989 | 37.36259 | 7397 ft | 239 kts | 359° |
| 2026-04-22 11:35 | 55.19649 | 37.36355 | 7231 ft | 238 kts | 359° |
| 2026-04-22 11:35 | 55.21302 | 37.36452 | 7075 ft | 238 kts | 360° |
| 2026-04-22 11:36 | 55.22957 | 37.36550 | 6889 ft | 238 kts | 359° |
| 2026-04-22 11:36 | 55.24614 | 37.36644 | 6733 ft | 240 kts | 360° |
| 2026-04-22 11:36 | 55.26303 | 37.36742 | 6566 ft | 245 kts | 360° |
| 2026-04-22 11:36 | 55.28013 | 37.36839 | 6369 ft | 245 kts | 359° |
| 2026-04-22 11:37 | 55.29684 | 37.36938 | 6198 ft | 242 kts | 359° |
| 2026-04-22 11:37 | 55.31353 | 37.37039 | 6028 ft | 238 kts | 360° |
| 2026-04-22 11:37 | 55.32979 | 37.37589 | 5824 ft | 237 kts | 13° |
| 2026-04-22 11:37 | 55.34562 | 37.38372 | 5659 ft | 237 kts | 13° |
| 2026-04-22 11:38 | 55.36143 | 37.39149 | 5502 ft | 236 kts | 13° |
| 2026-04-22 11:38 | 55.37722 | 37.39926 | 5327 ft | 236 kts | 13° |
| 2026-04-22 11:38 | 55.40889 | 37.41457 | 5007 ft | 235 kts | 12° |
| 2026-04-22 11:39 | 55.42446 | 37.42207 | 4842 ft | 235 kts | 13° |
| 2026-04-22 11:39 | 55.44020 | 37.42964 | 4681 ft | 234 kts | 12° |
| 2026-04-22 11:39 | 55.45599 | 37.43720 | 4519 ft | 236 kts | 12° |
| 2026-04-22 11:39 | 55.47177 | 37.44477 | 4376 ft | 235 kts | 13° |
| 2026-04-22 11:40 | 55.48753 | 37.45235 | 4156 ft | 233 kts | 13° |
| 2026-04-22 11:40 | 55.50296 | 37.45981 | 4039 ft | 226 kts | 13° |
| 2026-04-22 11:40 | 55.51804 | 37.46708 | 3805 ft | 224 kts | 12° |
| 2026-04-22 11:40 | 55.53290 | 37.47418 | 3554 ft | 219 kts | 12° |
| 2026-04-22 11:41 | 55.54746 | 37.48104 | 3345 ft | 214 kts | 9° |
| 2026-04-22 11:41 | 55.56150 | 37.48779 | 3155 ft | 211 kts | 14° |
| 2026-04-22 11:41 | 55.57563 | 37.49550 | 2955 ft | 211 kts | 13° |
| 2026-04-22 11:41 | 55.58914 | 37.50461 | 2713 ft | 199 kts | 10° |
| 2026-04-22 11:42 | 55.60154 | 37.50066 | 2603 ft | 176 kts | 324° |
| 2026-04-22 11:42 | 55.61216 | 37.48913 | 2473 ft | 185 kts | 335° |
| 2026-04-22 11:42 | 55.62411 | 37.48117 | 2294 ft | 181 kts | 330° |
| 2026-04-22 11:42 | 55.63248 | 37.46668 | 2262 ft | 167 kts | 291° |
| 2026-04-22 11:43 | 55.63257 | 37.44751 | 2269 ft | 162 kts | 250° |
| 2026-04-22 11:43 | 55.62886 | 37.42863 | 2200 ft | 158 kts | 257° |
| 2026-04-22 11:43 | 55.62548 | 37.41062 | 1932 ft | 156 kts | 248° |
| 2026-04-22 11:43 | 55.62138 | 37.39375 | 1896 ft | 148 kts | 249° |
| 2026-04-22 11:44 | 55.61740 | 37.37636 | 1732 ft | 156 kts | 249° |
| 2026-04-22 11:44 | 55.61352 | 37.35922 | 1514 ft | 150 kts | 248° |
| 2026-04-22 11:44 | 55.60964 | 37.34199 | 1408 ft | 153 kts | 250° |
| 2026-04-22 11:44 | 55.60562 | 37.32480 | 1148 ft | 150 kts | 245° |
| 2026-04-22 11:45 | 55.60189 | 37.30832 | 958 ft | 140 kts | 252° |
| 2026-04-22 11:45 | 55.59850 | 37.29244 | 765 ft | 141 kts | 249° |
| 2026-04-22 11:45 | 55.59493 | 37.27642 | 675 ft | 121 kts | 248° |
| 2026-04-22 11:45 | 55.59262 | 37.26622 | 668 ft | 59 kts | 248° |
| 2026-04-22 11:46 | 55.59187 | 37.26288 | 666 ft | 10 kts | 248° |
| 2026-04-22 11:46 | 55.59219 | 37.26204 | 668 ft | 9 kts | 355° |
| 2026-04-22 11:46 | 55.59276 | 37.26239 | 668 ft | 9 kts | 23° |
| 2026-04-22 11:46 | 55.59330 | 37.26281 | 668 ft | 8 kts | 23° |
| 2026-04-22 11:47 | 55.59383 | 37.26321 | 667 ft | 8 kts | 23° |
| 2026-04-22 11:47 | 55.59431 | 37.26376 | 667 ft | 9 kts | 50° |
| 2026-04-22 11:47 | 55.59459 | 37.26469 | 668 ft | 8 kts | 69° |
| 2026-04-22 11:47 | 55.59480 | 37.26563 | 668 ft | 8 kts | 68° |
| 2026-04-22 11:48 | 55.59501 | 37.26657 | 668 ft | 8 kts | 68° |
| 2026-04-22 11:48 | 55.59521 | 37.26745 | 668 ft | 8 kts | 68° |
| 2026-04-22 11:48 | 55.59544 | 37.26828 | 668 ft | 7 kts | 55° |
| 2026-04-22 11:48 | 55.59577 | 37.26897 | 668 ft | 7 kts | 47° |
| 2026-04-22 11:49 | 55.59613 | 37.26964 | 667 ft | 8 kts | 46° |
| 2026-04-22 11:49 | 55.59649 | 37.27031 | 667 ft | 7 kts | 46° |
| 2026-04-22 11:49 | 55.59684 | 37.27096 | 668 ft | 7 kts | 46° |
| 2026-04-22 11:49 | 55.59718 | 37.27159 | 669 ft | 7 kts | 46° |
| 2026-04-22 11:50 | 55.59752 | 37.27222 | 671 ft | 7 kts | 46° |
| 2026-04-22 11:50 | 55.59795 | 37.27302 | 672 ft | 11 kts | 46° |
| 2026-04-22 11:50 | 55.59848 | 37.27401 | 674 ft | 11 kts | 46° |
| 2026-04-22 11:50 | 55.59900 | 37.27497 | 675 ft | 11 kts | 46° |
| 2026-04-22 11:51 | 55.59947 | 37.27596 | 679 ft | 10 kts | 62° |
| 2026-04-22 11:51 | 55.59990 | 37.27694 | 678 ft | 10 kts | 47° |
| 2026-04-22 11:51 | 55.60002 | 37.27787 | 679 ft | 5 kts | 117° |
| 2026-04-22 11:51 | 55.59986 | 37.27847 | 679 ft | 5 kts | 96° |
| 2026-04-22 11:52 | 55.60008 | 37.27899 | 677 ft | 6 kts | 32° |
| 2026-04-22 11:52 | 55.60036 | 37.27922 | 679 ft | 2 kts | 24° |
| 2026-04-22 11:52 | 55.60037 | 37.27923 | 679 ft | 0 kts | 24° |